Time;durP1;ratioP1;P1;durP2;ratioP2;P2;SDS_P1;SDS_P2;PMS_P1;PMS_P2;Temp;Humidity;BMP_temperature;BMP_pressure;BME280_temperature;BME280_humidity;BME280_pressure;Samples;Min_cycle;Max_cycle;Signal;HPM_P1;HPM_P2
2023/06/23 10:34:15;;;;;;;11.10;4.30;;;;;;;25.33;69.81;98884.59;106673;1302;545088;-34
2023/06/23 10:36:43;;;;;;;11.20;4.70;;;;;;;25.57;67.67;98883.87;106616;1311;22410;-36
2023/06/23 10:39:12;;;;;;;10.50;4.70;;;;;;;25.80;66.75;98884.83;107505;1305;22379;-37
2023/06/23 10:41:40;;;;;;;13.10;4.60;;;;;;;26.11;66.95;98883.05;106683;1308;22586;-43
2023/06/23 10:44:08;;;;;;;9.90;4.00;;;;;;;26.37;66.44;98884.21;106963;1305;22562;-40
2023/06/23 10:46:33;;;;;;;11.50;4.90;;;;;;;26.44;63.70;98887.48;106870;1305;22760;-45
2023/06/23 10:49:00;;;;;;;7.80;4.80;;;;;;;26.51;63.25;98888.77;106720;1309;140895;-38
2023/06/23 10:51:25;;;;;;;15.00;5.20;;;;;;;26.52;62.63;98891.05;107737;1301;23202;-38
2023/06/23 10:54:00;;;;;;;22.40;5.40;;;;;;;26.53;63.08;98892.60;107431;1305;22295;-42
2023/06/23 10:56:40;;;;;;;11.50;5.10;;;;;;;26.34;62.31;98890.15;107618;1302;22971;-40
2023/06/23 10:59:28;;;;;;;12.80;5.40;;;;;;;26.16;62.87;98892.86;107639;1302;22203;-40
2023/06/23 11:02:00;;;;;;;9.30;5.50;;;;;;;25.98;63.54;98901.80;107726;1302;23296;-41
2023/06/23 11:04:30;;;;;;;10.60;6.00;;;;;;;25.75;64.40;98903.80;107726;1304;22251;-41
2023/06/23 11:07:15;;;;;;;11.30;6.40;;;;;;;25.55;65.38;98899.33;107751;1301;23041;-37
2023/06/23 11:10:01;;;;;;;12.40;6.80;;;;;;;25.48;66.18;98901.03;107738;1302;22147;-36
2023/06/23 11:12:27;;;;;;;;;;;;;;;25.40;66.17;98894.04;107767;1308;22533;-39
2023/06/23 11:14:53;;;;;;;11.70;6.20;;;;;;;25.30;66.41;98895.87;107797;1301;22196;-38
2023/06/23 11:17:21;;;;;;;11.50;6.50;;;;;;;25.16;66.99;98897.75;107797;1308;22246;-39
2023/06/23 11:19:53;;;;;;;14.50;6.60;;;;;;;25.12;67.41;98900.05;107693;1309;22305;-35
2023/06/23 11:22:23;;;;;;;11.60;7.10;;;;;;;25.09;67.74;98901.80;107680;1302;22243;-38
2023/06/23 11:24:52;;;;;;;11.40;6.90;;;;;;;25.10;67.88;98899.13;107744;1308;22261;-37
2023/06/23 11:27:18;;;;;;;15.20;6.80;;;;;;;25.19;68.20;98895.73;107796;1308;22272;-38
2023/06/23 11:30:18;;;;;;;14.20;7.20;;;;;;;25.41;67.63;98890.53;107776;1305;22241;-39
2023/06/23 11:32:44;;;;;;;18.80;7.20;;;;;;;25.71;66.95;98889.73;107770;1308;22346;-39
2023/06/23 11:35:10;;;;;;;13.50;7.20;;;;;;;26.02;65.83;98887.98;107811;1302;22381;-37
2023/06/23 11:37:38;;;;;;;17.40;7.60;;;;;;;26.39;65.34;98888.11;107826;1302;22221;-39
2023/06/23 11:40:05;;;;;;;14.50;7.80;;;;;;;26.76;64.31;98895.05;107808;1308;22961;-44
2023/06/23 11:42:31;;;;;;;9.90;6.90;;;;;;;26.87;63.50;98894.57;107821;1308;22256;-40
2023/06/23 11:44:57;;;;;;;11.50;8.10;;;;;;;26.82;63.29;98893.63;107784;1308;22249;-40
2023/06/23 11:47:24;;;;;;;17.70;8.70;;;;;;;26.72;63.36;98892.58;107717;1305;22237;-37
2023/06/23 11:49:51;;;;;;;13.50;8.60;;;;;;;26.54;63.65;98886.63;107779;1308;22243;-38
2023/06/23 11:52:17;;;;;;;12.30;7.30;;;;;;;26.38;64.25;98881.30;107760;1304;22365;-38
2023/06/23 11:54:44;;;;;;;19.10;8.70;;;;;;;26.45;64.57;98881.77;107756;1305;23060;-38
2023/06/23 11:57:09;;;;;;;13.10;8.70;;;;;;;26.55;64.10;98881.58;107741;1301;22240;-39
2023/06/23 11:59:36;;;;;;;12.70;8.10;;;;;;;26.55;64.19;98877.71;107707;1304;22391;-36
2023/06/23 12:02:01;;;;;;;15.40;8.70;;;;;;;26.65;64.23;98873.48;107726;1301;23193;-38
2023/06/23 12:04:27;;;;;;;18.60;8.30;;;;;;;26.79;63.74;98880.66;107712;1302;23119;-39
2023/06/23 12:06:52;;;;;;;14.10;9.30;;;;;;;26.70;63.75;98882.98;107731;1301;22248;-39
2023/06/23 12:09:20;;;;;;;12.70;9.30;;;;;;;26.63;63.95;98881.15;107726;1303;22332;-37
2023/06/23 12:11:46;;;;;;;17.20;9.10;;;;;;;26.56;64.16;98877.23;107780;1308;22364;-40
2023/06/23 12:14:12;;;;;;;17.90;10.10;;;;;;;26.25;65.03;98878.30;107747;1305;22138;-37
2023/06/23 12:16:37;;;;;;;14.00;8.70;;;;;;;26.01;66.16;98881.61;107751;1302;22384;-36
2023/06/23 12:19:03;;;;;;;14.40;9.30;;;;;;;25.92;66.61;98881.16;107738;1305;22361;-38
2023/06/23 12:21:28;;;;;;;15.30;8.70;;;;;;;25.87;67.49;98878.92;107744;1290;22383;-42
2023/06/23 12:23:56;;;;;;;16.20;9.00;;;;;;;25.91;67.47;98878.05;107778;1307;22424;-41
2023/06/23 12:26:21;;;;;;;18.10;10.00;;;;;;;25.89;67.70;98878.50;107814;1302;22466;-38
2023/06/23 12:28:48;;;;;;;15.00;9.60;;;;;;;25.88;67.40;98875.58;107786;1302;22246;-40
2023/06/23 12:31:24;;;;;;;14.20;9.50;;;;;;;25.82;67.55;98874.53;107776;1301;22277;-37
2023/06/23 12:33:50;;;;;;;11.40;9.30;;;;;;;25.68;67.67;98870.38;107804;1301;22431;-40
2023/06/23 12:36:15;;;;;;;17.80;10.20;;;;;;;25.45;69.18;98877.56;107782;1308;23529;-42
2023/06/23 12:38:41;;;;;;;13.20;9.20;;;;;;;25.35;68.83;98878.51;107763;1308;22366;-37
2023/06/23 12:41:16;;;;;;;17.20;10.00;;;;;;;25.22;69.40;98874.89;107743;1308;22129;-41
2023/06/23 12:43:42;;;;;;;17.60;10.30;;;;;;;25.07;70.10;98873.05;107752;1308;22449;-38
2023/06/23 12:46:11;;;;;;;14.80;9.90;;;;;;;24.96;70.15;98870.43;107690;1302;22387;-38
2023/06/23 12:48:39;;;;;;;18.20;10.30;;;;;;;24.87;70.79;98876.11;107786;1302;22439;-37
2023/06/23 12:51:05;;;;;;;18.20;9.50;;;;;;;24.77;71.81;98882.44;107726;1301;22237;-40
2023/06/23 12:53:31;;;;;;;16.10;10.70;;;;;;;24.63;72.76;98885.02;107776;1308;23240;-37
2023/06/23 12:55:56;;;;;;;15.80;9.80;;;;;;;24.60;73.50;98886.05;107739;1308;23546;-39
2023/06/23 12:58:21;;;;;;;14.10;10.40;;;;;;;24.74;72.83;98888.55;107740;1302;22357;-40
2023/06/23 13:00:47;;;;;;;16.10;10.30;;;;;;;24.82;73.14;98890.65;107761;1298;22423;-40
2023/06/23 13:03:13;;;;;;;13.00;9.70;;;;;;;24.90;72.63;98892.66;107747;1302;22255;-41
2023/06/23 13:05:40;;;;;;;16.20;9.70;;;;;;;25.04;72.19;98895.13;107767;1308;22993;-39
2023/06/23 13:08:06;;;;;;;17.50;9.50;;;;;;;25.11;72.25;98901.78;107830;1305;22239;-39
2023/06/23 13:10:31;;;;;;;18.30;10.40;;;;;;;25.09;72.52;98907.92;107810;1308;22254;-42
2023/06/23 13:12:56;;;;;;;15.00;10.10;;;;;;;25.08;72.41;98905.14;107715;1308;22255;-40
2023/06/23 13:15:22;;;;;;;14.30;9.40;;;;;;;25.10;72.57;98901.19;107807;1308;22360;-40
2023/06/23 13:17:47;;;;;;;21.90;8.80;;;;;;;25.21;72.37;98898.44;107784;1298;23059;-40
2023/06/23 13:20:13;;;;;;;8.90;7.50;;;;;;;25.45;71.33;98895.13;107818;1308;22223;-38
2023/06/23 13:22:38;;;;;;;11.60;7.90;;;;;;;25.64;70.47;98894.33;107785;1308;22504;-39
2023/06/23 13:25:04;;;;;;;16.50;7.50;;;;;;;25.84;69.92;98894.58;107806;1305;22427;-40
2023/06/23 13:27:29;;;;;;;8.60;6.80;;;;;;;26.05;68.95;98899.63;107716;1305;22589;-38
2023/06/23 13:29:54;;;;;;;13.40;6.70;;;;;;;26.22;67.47;98894.05;107764;1301;22999;-37
2023/06/23 13:32:20;;;;;;;8.00;6.30;;;;;;;26.43;66.99;98894.48;107739;1308;22420;-37
2023/06/23 13:34:45;;;;;;;10.70;5.80;;;;;;;26.62;65.45;98896.36;107795;1302;22234;-38
2023/06/23 13:37:11;;;;;;;11.50;6.10;;;;;;;26.77;64.53;98894.84;107761;1301;23001;-36
2023/06/23 13:39:37;;;;;;;9.20;5.40;;;;;;;26.79;63.09;98888.64;107801;1308;22253;-40
2023/06/23 13:42:03;;;;;;;8.90;4.90;;;;;;;26.73;62.89;98882.79;107792;1285;23002;-37
2023/06/23 13:44:28;;;;;;;11.20;5.20;;;;;;;26.60;62.91;98883.09;107780;1302;22283;-40
2023/06/23 13:46:54;;;;;;;12.20;5.80;;;;;;;26.51;63.02;98882.47;107774;1305;22398;-41
2023/06/23 13:49:19;;;;;;;8.10;5.30;;;;;;;26.40;63.29;98894.70;107765;1305;22329;-41
2023/06/23 13:51:44;;;;;;;13.50;5.80;;;;;;;26.32;63.34;98892.95;107766;1302;22254;-38
2023/06/23 13:54:10;;;;;;;9.70;5.80;;;;;;;26.21;63.77;98896.90;107745;1302;22249;-41
2023/06/23 13:56:36;;;;;;;9.90;6.60;;;;;;;26.26;63.84;98896.85;107760;1305;22349;-41
2023/06/23 13:59:01;;;;;;;10.80;6.40;;;;;;;26.29;63.86;98891.52;107773;1301;22433;-36
2023/06/23 14:01:28;;;;;;;15.20;6.80;;;;;;;26.22;64.07;98886.38;107707;1309;22233;-41
2023/06/23 14:03:53;;;;;;;7.20;5.70;;;;;;;26.16;64.47;98889.48;107769;1302;22361;-40
2023/06/23 14:06:18;;;;;;;14.40;6.00;;;;;;;26.12;64.59;98887.96;107758;1308;23122;-41
2023/06/23 14:08:48;;;;;;;13.30;6.60;;;;;;;26.00;64.29;98885.61;107799;1301;22361;-40
2023/06/23 14:11:14;;;;;;;10.30;6.30;;;;;;;26.00;64.62;98888.94;107772;1308;22373;-40
2023/06/23 14:13:41;;;;;;;10.50;6.10;;;;;;;26.04;64.71;98895.27;107591;1305;23752;-39
2023/06/23 14:16:07;;;;;;;13.80;6.00;;;;;;;26.13;64.58;98899.98;107767;1305;22357;-38
2023/06/23 14:18:33;;;;;;;8.80;6.10;;;;;;;26.24;64.11;98905.71;107781;1308;22268;-39
2023/06/23 14:20:58;;;;;;;8.90;5.70;;;;;;;26.30;63.21;98911.23;107767;1308;22244;-40
2023/06/23 14:23:24;;;;;;;8.30;6.00;;;;;;;26.34;62.51;98910.47;107673;1295;22601;-40
2023/06/23 14:25:49;;;;;;;10.50;6.00;;;;;;;26.39;62.43;98912.20;107743;1302;22446;-38
2023/06/23 14:28:15;;;;;;;11.60;6.00;;;;;;;26.48;62.38;98907.41;107756;1302;23080;-40
2023/06/23 14:30:40;;;;;;;9.10;5.70;;;;;;;26.56;61.96;98907.55;107761;1305;22372;-38
2023/06/23 14:33:06;;;;;;;9.00;5.20;;;;;;;26.49;61.46;98911.56;107734;1301;22414;-39
2023/06/23 14:35:31;;;;;;;13.70;6.40;;;;;;;26.55;61.55;98921.52;107751;1305;22434;-40
2023/06/23 14:37:57;;;;;;;9.50;6.10;;;;;;;26.48;61.49;98927.48;107744;1308;22964;-37
2023/06/23 14:40:22;;;;;;;11.40;6.60;;;;;;;26.51;61.63;98929.39;107727;1308;22360;-40
2023/06/23 14:42:47;;;;;;;9.30;6.80;;;;;;;26.43;61.95;98928.29;107751;1308;22263;-41
2023/06/23 14:45:13;;;;;;;14.90;6.80;;;;;;;26.52;61.35;98929.10;107713;1302;23702;-42
2023/06/23 14:47:40;;;;;;;10.20;6.30;;;;;;;26.48;61.44;98938.20;107737;1308;22429;-40
2023/06/23 14:50:07;;;;;;;14.10;6.80;;;;;;;26.43;61.65;98940.89;107741;1305;22588;-41
2023/06/23 14:52:35;;;;;;;8.80;5.70;;;;;;;26.45;60.56;98937.30;107763;1301;22262;-41
2023/06/23 14:55:00;;;;;;;10.20;6.40;;;;;;;26.41;60.15;98942.31;107740;1299;22423;-37
2023/06/23 14:57:27;;;;;;;13.50;6.20;;;;;;;26.42;60.13;98953.88;107789;1301;22276;-41
2023/06/23 14:59:52;;;;;;;9.10;6.60;;;;;;;26.37;60.19;98962.97;107819;1308;22935;-38
2023/06/23 15:02:18;;;;;;;8.80;6.30;;;;;;;26.28;60.24;98961.26;107801;1308;22244;-38
2023/06/23 15:04:43;;;;;;;7.90;6.60;;;;;;;26.23;60.26;98969.95;107804;1308;22412;-39
2023/06/23 15:07:08;;;;;;;8.90;5.80;;;;;;;26.16;60.13;98973.52;107818;1304;22236;-42
2023/06/23 15:09:34;;;;;;;10.70;6.40;;;;;;;26.04;60.42;98973.61;107814;1308;22402;-39
2023/06/23 15:11:59;;;;;;;14.20;6.80;;;;;;;25.91;60.83;98977.55;107823;1308;22655;-42
2023/06/23 15:14:24;;;;;;;14.20;6.80;;;;;;;25.75;61.07;98977.89;107816;1308;22390;-40
2023/06/23 15:16:50;;;;;;;11.80;6.90;;;;;;;25.64;61.56;98978.04;107804;1308;22797;-44
2023/06/23 15:19:16;;;;;;;9.10;7.10;;;;;;;25.54;61.65;98980.88;107823;1305;23233;-38
2023/06/23 15:21:41;;;;;;;10.60;8.00;;;;;;;25.42;61.62;98983.21;107817;1305;22483;-39
2023/06/23 15:24:06;;;;;;;12.00;8.20;;;;;;;25.20;62.20;98982.29;107839;1308;22246;-40
2023/06/23 15:26:32;;;;;;;13.60;7.80;;;;;;;25.08;62.58;98978.19;107832;1308;22242;-39
2023/06/23 15:28:57;;;;;;;8.40;7.50;;;;;;;25.05;62.56;98977.65;107829;1308;22892;-38
2023/06/23 15:31:22;;;;;;;10.30;8.60;;;;;;;25.01;62.53;98978.16;107760;1305;23221;-36
2023/06/23 15:33:47;;;;;;;9.30;8.00;;;;;;;24.92;62.83;98984.38;107757;1301;22334;-37
2023/06/23 15:36:13;;;;;;;20.50;8.30;;;;;;;24.81;63.43;98983.77;107718;1308;22388;-33
2023/06/23 15:38:38;;;;;;;12.60;8.30;;;;;;;24.83;63.17;98983.15;107759;1302;22450;-36
2023/06/23 15:41:05;;;;;;;9.60;8.60;;;;;;;24.74;63.84;98980.36;107757;1305;23086;-41
2023/06/23 15:43:31;;;;;;;11.90;8.30;;;;;;;24.78;64.17;98979.52;107756;1305;22314;-41
2023/06/23 15:45:57;;;;;;;10.10;9.00;;;;;;;24.85;63.97;98972.83;107771;1301;22344;-39
2023/06/23 15:48:22;;;;;;;13.30;9.80;;;;;;;24.80;63.95;98970.23;107752;1308;22440;-43
2023/06/23 15:50:48;;;;;;;11.80;9.90;;;;;;;24.80;63.36;98975.60;107750;1308;22274;-40
2023/06/23 15:53:14;;;;;;;12.80;9.80;;;;;;;24.78;63.31;98967.80;107784;1305;22345;-40
2023/06/23 15:55:39;;;;;;;12.90;9.40;;;;;;;24.75;63.50;98967.38;107830;1302;22373;-43
2023/06/23 15:58:04;;;;;;;16.70;9.90;;;;;;;24.79;63.62;98967.11;107766;1302;23364;-39
2023/06/23 16:00:30;;;;;;;15.50;9.60;;;;;;;24.76;63.96;98971.91;107770;1302;22374;-40
2023/06/23 16:02:55;;;;;;;17.40;10.50;;;;;;;24.73;64.29;98975.22;107757;1302;23003;-41
2023/06/23 16:05:23;;;;;;;15.10;9.50;;;;;;;24.75;64.25;98971.59;107720;1301;22549;-39
2023/06/23 16:07:49;;;;;;;12.50;10.00;;;;;;;24.75;64.13;98970.82;107771;1302;22455;-38
2023/06/23 16:10:14;;;;;;;12.60;10.50;;;;;;;24.73;63.96;98969.50;107766;1308;22345;-40
2023/06/23 16:12:40;;;;;;;20.10;11.20;;;;;;;24.61;64.42;98976.61;107762;1308;23095;-41
2023/06/23 16:15:06;;;;;;;15.20;11.00;;;;;;;24.60;64.37;98979.64;107767;1302;22265;-38
2023/06/23 16:17:31;;;;;;;16.40;11.70;;;;;;;24.56;65.16;98982.23;107748;1302;22433;-41
2023/06/23 16:19:57;;;;;;;13.60;10.20;;;;;;;24.42;68.11;98981.66;107765;1305;22380;-40
2023/06/23 16:22:22;;;;;;;16.30;11.70;;;;;;;24.37;69.52;98976.43;107779;1302;22430;-36
2023/06/23 16:24:47;;;;;;;15.60;10.80;;;;;;;24.27;70.63;98973.95;107773;1308;22227;-39
2023/06/23 16:27:13;;;;;;;17.00;11.80;;;;;;;24.18;71.89;98977.02;107736;1302;22381;-41
2023/06/23 16:29:38;;;;;;;19.20;13.20;;;;;;;24.06;71.88;98972.48;107778;1301;22421;-39
2023/06/23 16:32:04;;;;;;;19.20;12.80;;;;;;;24.01;72.62;98974.90;107742;1302;22511;-42
2023/06/23 16:34:30;;;;;;;17.90;13.00;;;;;;;23.95;73.54;98983.47;107741;1302;22445;-40
2023/06/23 16:36:55;;;;;;;15.00;12.70;;;;;;;23.92;72.78;98986.11;107763;1308;22228;-39
2023/06/23 16:39:20;;;;;;;19.00;12.80;;;;;;;23.91;72.76;98985.73;107775;1308;22316;-39
2023/06/23 16:41:53;;;;;;;22.00;12.90;;;;;;;23.75;74.55;98980.69;107760;1301;22364;-40
2023/06/23 16:44:18;;;;;;;24.60;13.30;;;;;;;23.66;74.88;98982.41;107832;1308;22340;-38
2023/06/23 16:46:44;;;;;;;20.80;13.60;;;;;;;23.62;74.59;98988.45;107828;1308;22384;-38
2023/06/23 16:49:09;;;;;;;18.20;14.20;;;;;;;23.53;75.11;98992.68;107772;1302;22203;-40
2023/06/23 16:51:34;;;;;;;18.20;14.30;;;;;;;23.54;74.51;98991.14;107751;1305;22375;-43
2023/06/23 16:54:00;;;;;;;23.10;14.70;;;;;;;23.52;74.27;98985.68;107784;1301;22353;-38
2023/06/23 16:56:25;;;;;;;24.80;14.90;;;;;;;23.48;73.92;98977.58;107752;1306;22399;-37
2023/06/23 16:58:50;;;;;;;24.10;15.40;;;;;;;23.40;74.67;98976.69;107665;1302;22357;-42
2023/06/23 17:01:16;;;;;;;24.50;15.50;;;;;;;23.37;74.23;98980.52;107774;1308;23229;-40
2023/06/23 17:03:41;;;;;;;34.60;15.50;;;;;;;23.34;74.75;98985.02;107785;1291;23026;-37
2023/06/23 17:06:06;;;;;;;22.60;14.50;;;;;;;23.29;74.91;98988.94;107741;1306;22237;-36
2023/06/23 17:08:33;;;;;;;26.30;15.00;;;;;;;23.24;75.12;98986.71;107775;1308;23052;-41
2023/06/23 17:10:58;;;;;;;20.90;14.70;;;;;;;23.23;74.91;98984.67;107768;1308;22229;-41
2023/06/23 17:13:23;;;;;;;20.00;14.00;;;;;;;23.23;75.26;98977.20;107730;1308;22244;-41
2023/06/23 17:15:49;;;;;;;21.30;14.60;;;;;;;23.15;75.99;98976.66;107755;1308;22430;-36
2023/06/23 17:18:14;;;;;;;20.80;14.20;;;;;;;23.19;75.64;98971.67;107732;1302;23167;-38
2023/06/23 17:20:40;;;;;;;27.30;16.10;;;;;;;23.22;75.67;98973.55;107556;1308;23147;-36
2023/06/23 17:23:05;;;;;;;20.70;15.10;;;;;;;23.20;75.55;98980.54;107749;1302;22412;-41
2023/06/23 17:25:31;;;;;;;28.90;16.10;;;;;;;23.20;75.17;98986.97;107753;1305;22459;-38
2023/06/23 17:27:56;;;;;;;28.20;16.30;;;;;;;23.13;75.63;98988.10;107752;1308;22382;-40
2023/06/23 17:30:22;;;;;;;22.70;15.50;;;;;;;23.06;75.63;98982.06;107796;1302;22456;-44
2023/06/23 17:32:47;;;;;;;22.50;15.30;;;;;;;23.00;75.72;98976.45;107801;1308;22493;-38
2023/06/23 17:35:13;;;;;;;25.50;15.70;;;;;;;22.96;76.19;98983.33;107826;1308;22350;-40
2023/06/23 17:37:38;;;;;;;24.60;15.20;;;;;;;22.88;76.30;98988.00;107810;1308;22242;-40
2023/06/23 17:40:04;;;;;;;21.70;15.40;;;;;;;22.89;75.85;98986.09;107795;1308;22976;-37
2023/06/23 17:42:30;;;;;;;23.00;13.40;;;;;;;22.88;75.85;98983.38;107836;1308;22284;-40
2023/06/23 17:44:55;;;;;;;24.60;14.50;;;;;;;22.92;75.77;98980.75;107846;1308;22217;-40
2023/06/23 17:47:20;;;;;;;34.00;15.90;;;;;;;22.92;75.90;98977.56;107819;1308;23071;-39
2023/06/23 17:49:46;;;;;;;25.10;15.00;;;;;;;22.89;76.03;98974.69;107814;1308;22255;-41
2023/06/23 17:52:11;;;;;;;19.20;14.40;;;;;;;22.81;75.87;98967.17;107844;1308;22248;-41
2023/06/23 17:54:37;;;;;;;20.10;13.80;;;;;;;22.79;75.92;98972.05;107850;1308;22196;-40
2023/06/23 17:57:02;;;;;;;20.50;13.60;;;;;;;22.75;76.36;98969.40;107792;1308;22232;-37
2023/06/23 17:59:27;;;;;;;24.20;15.40;;;;;;;22.70;76.72;98964.45;107842;1308;22229;-40
2023/06/23 18:01:53;;;;;;;22.20;13.10;;;;;;;22.62;77.16;98956.42;107800;1308;25137;-39
2023/06/23 18:04:18;;;;;;;23.20;15.00;;;;;;;22.57;77.05;98954.48;107825;1308;22585;-39
2023/06/23 18:06:44;;;;;;;19.70;14.60;;;;;;;22.49;77.57;98949.96;107820;1308;22187;-36
2023/06/23 18:09:09;;;;;;;25.70;14.80;;;;;;;22.45;77.78;98946.55;107848;1308;22223;-37
2023/06/23 18:11:36;;;;;;;20.80;13.70;;;;;;;22.36;78.28;98947.90;107813;1308;22220;-41
2023/06/23 18:14:02;;;;;;;22.50;13.10;;;;;;;22.27;79.23;98966.87;107826;1308;23204;-36
2023/06/23 18:16:27;;;;;;;28.00;15.90;;;;;;;22.22;79.12;98981.04;107842;1308;23119;-37
2023/06/23 18:18:52;;;;;;;23.50;15.40;;;;;;;22.13;80.91;98989.73;107792;1308;22240;-40
2023/06/23 18:21:18;;;;;;;22.60;14.20;;;;;;;22.14;80.18;99005.05;107843;1308;22227;-36
2023/06/23 18:23:44;;;;;;;23.40;14.90;;;;;;;22.14;81.13;99013.41;107802;1308;22405;-37
2023/06/23 18:26:10;;;;;;;18.70;13.70;;;;;;;22.14;81.29;99009.86;107824;1308;22958;-40
2023/06/23 18:28:35;;;;;;;23.50;14.20;;;;;;;22.16;80.35;99000.46;107799;1308;22241;-39
2023/06/23 18:31:00;;;;;;;22.50;13.90;;;;;;;22.17;81.35;99004.37;107822;1308;22234;-38
2023/06/23 18:33:26;;;;;;;29.30;15.00;;;;;;;22.09;82.03;99009.89;107808;1308;23299;-40
2023/06/23 18:35:51;;;;;;;22.60;15.20;;;;;;;22.03;81.96;99007.40;107841;1308;22223;-44
2023/06/23 18:38:16;;;;;;;26.50;15.20;;;;;;;21.92;84.02;99006.16;107831;1308;22979;-47
2023/06/23 18:40:41;;;;;;;19.90;14.60;;;;;;;21.82;84.48;99011.63;107827;1308;22907;-49
2023/06/23 18:43:07;;;;;;;20.40;14.10;;;;;;;21.80;83.79;99011.69;107815;1308;22237;-46
2023/06/23 18:45:33;;;;;;;23.00;13.10;;;;;;;21.65;85.28;99019.13;107817;1308;23024;-45
2023/06/23 18:47:58;;;;;;;21.70;13.20;;;;;;;21.44;86.47;99021.32;107831;1308;22256;-47
2023/06/23 18:50:23;;;;;;;26.80;13.10;;;;;;;21.38;85.96;99034.29;107836;1308;22284;-47
2023/06/23 18:52:49;;;;;;;21.20;12.60;;;;;;;21.27;85.87;99042.20;107836;1308;22977;-49
2023/06/23 18:55:14;;;;;;;17.80;11.80;;;;;;;21.21;85.81;99047.79;107842;1308;22491;-50
2023/06/23 18:57:41;;;;;;;18.10;10.50;;;;;;;21.09;86.87;99054.23;107826;1305;22431;-52
2023/06/23 19:00:08;;;;;;;14.80;10.00;;;;;;;21.04;87.09;99064.19;107867;1308;22220;-49
2023/06/23 19:02:33;;;;;;;15.00;10.00;;;;;;;21.05;86.69;99065.88;107851;1308;22391;-52
2023/06/23 19:04:58;;;;;;;15.50;9.50;;;;;;;21.08;86.02;99073.73;107836;1308;22230;-43
2023/06/23 19:07:23;;;;;;;16.40;10.10;;;;;;;21.04;86.54;99077.77;107845;1308;22236;-51
2023/06/23 19:09:49;;;;;;;16.40;9.20;;;;;;;21.01;86.44;99086.23;107831;1308;22227;-45
2023/06/23 19:12:14;;;;;;;14.90;8.30;;;;;;;20.92;86.07;99093.58;107838;1308;22503;-44
2023/06/23 19:14:40;;;;;;;17.70;8.70;;;;;;;20.90;85.93;99098.23;107852;1308;22215;-46
2023/06/23 19:17:06;;;;;;;15.40;8.20;;;;;;;20.85;86.08;99104.75;107836;1308;22942;-44
2023/06/23 19:19:32;;;;;;;19.20;8.80;;;;;;;20.88;85.95;99110.68;107881;1308;23083;-53
2023/06/23 19:21:58;;;;;;;13.70;8.40;;;;;;;20.92;85.69;99112.63;107825;1308;22210;-44
2023/06/23 19:24:23;;;;;;;12.20;7.80;;;;;;;20.93;84.85;99107.32;107838;1308;22211;-52
2023/06/23 19:26:49;;;;;;;16.30;7.50;;;;;;;20.87;85.08;99113.15;107821;1308;22299;-47
2023/06/23 19:29:14;;;;;;;11.20;7.50;;;;;;;20.78;85.72;99118.30;107845;1308;22231;-49
2023/06/23 19:31:39;;;;;;;19.50;7.60;;;;;;;20.76;85.54;99120.64;107865;1308;23095;-47
2023/06/23 19:34:06;;;;;;;15.40;8.30;;;;;;;20.72;85.55;99120.33;107826;1308;22943;-47
2023/06/23 19:36:31;;;;;;;12.70;8.20;;;;;;;20.65;86.15;99120.12;107834;1308;22389;-43
2023/06/23 19:38:57;;;;;;;13.00;7.60;;;;;;;20.65;85.96;99126.01;107808;1308;22245;-45
2023/06/23 19:41:22;;;;;;;13.50;8.20;;;;;;;20.59;86.53;99129.43;107840;1308;22161;-49
2023/06/23 19:43:47;;;;;;;16.80;7.90;;;;;;;20.60;86.41;99129.20;107829;1308;22249;-48
2023/06/23 19:46:13;;;;;;;12.90;7.50;;;;;;;20.57;86.45;99122.84;107825;1308;22252;-44
2023/06/23 19:48:38;;;;;;;16.90;8.30;;;;;;;20.62;86.05;99127.38;107845;1308;22241;-44
2023/06/23 19:51:03;;;;;;;15.20;8.10;;;;;;;20.65;86.52;99131.32;107840;1308;22259;-52
2023/06/23 19:53:29;;;;;;;12.00;7.40;;;;;;;20.66;85.99;99134.64;107850;1308;22208;-49
2023/06/23 19:55:54;;;;;;;18.30;7.30;;;;;;;20.65;86.19;99135.81;107853;1308;22211;-50
2023/06/23 19:58:19;;;;;;;11.40;7.20;;;;;;;20.59;86.54;99131.80;107846;1307;24180;-49
2023/06/23 20:00:46;;;;;;;9.20;6.90;;;;;;;20.59;86.01;99130.52;107834;1308;22340;-49
2023/06/23 20:03:11;;;;;;;10.60;6.80;;;;;;;20.56;85.99;99129.20;107841;1308;23111;-49
2023/06/23 20:05:36;;;;;;;8.80;6.90;;;;;;;20.50;85.94;99124.77;107815;1308;22472;-50
2023/06/23 20:08:02;;;;;;;11.80;7.10;;;;;;;20.48;85.59;99123.90;107832;1308;23085;-47
2023/06/23 20:10:28;;;;;;;10.90;6.60;;;;;;;20.47;85.62;99132.74;107821;1308;22222;-49
2023/06/23 20:12:53;;;;;;;11.60;7.00;;;;;;;20.37;85.97;99131.95;107857;1308;22916;-48
2023/06/23 20:15:18;;;;;;;10.10;7.10;;;;;;;20.39;84.81;99130.36;107826;1308;22191;-51
2023/06/23 20:17:44;;;;;;;9.50;6.90;;;;;;;20.31;85.40;99126.69;107851;1308;22460;-52
2023/06/23 20:20:11;;;;;;;11.40;6.30;;;;;;;20.27;85.79;99129.58;107821;1308;22402;-44
2023/06/23 20:22:36;;;;;;;9.40;6.30;;;;;;;20.27;85.53;99130.27;107857;1308;22387;-47
2023/06/23 20:25:01;;;;;;;8.20;6.50;;;;;;;20.19;85.50;99129.29;107846;1308;23122;-46
2023/06/23 20:27:26;;;;;;;12.50;7.60;;;;;;;20.23;84.60;99134.05;107829;1308;23308;-46
2023/06/23 20:29:52;;;;;;;13.10;7.20;;;;;;;20.18;85.03;99143.73;107835;1308;22357;-48
2023/06/23 20:32:17;;;;;;;9.60;6.40;;;;;;;20.04;85.50;99149.02;107838;1308;22439;-46
2023/06/23 20:34:42;;;;;;;10.10;6.20;;;;;;;20.05;84.95;99157.54;107837;1308;22999;-51
2023/06/23 20:37:08;;;;;;;10.00;5.70;;;;;;;19.99;84.34;99160.64;107856;1308;22401;-47
2023/06/23 20:39:34;;;;;;;7.60;5.50;;;;;;;19.95;83.83;99158.48;107839;1308;22235;-46
2023/06/23 20:42:00;;;;;;;8.10;5.20;;;;;;;19.94;83.09;99156.96;107831;1308;23494;-44
2023/06/23 20:44:26;;;;;;;8.00;5.00;;;;;;;19.89;82.41;99159.35;107827;1308;22404;-44
2023/06/23 20:46:51;;;;;;;11.20;5.10;;;;;;;19.89;82.12;99166.11;107847;1308;22247;-43
2023/06/23 20:49:17;;;;;;;9.50;4.90;;;;;;;19.89;81.83;99168.84;107826;1308;23519;-43
2023/06/23 20:51:44;;;;;;;9.70;5.10;;;;;;;19.85;81.61;99179.58;107853;1308;22221;-53
2023/06/23 20:54:09;;;;;;;11.30;5.00;;;;;;;19.82;81.64;99186.55;107838;1308;22292;-48
2023/06/23 20:56:35;;;;;;;10.00;4.50;;;;;;;19.87;81.31;99191.81;107846;1308;23065;-48
2023/06/23 20:59:00;;;;;;;7.20;5.70;;;;;;;19.90;80.85;99196.62;107816;1308;22694;-45
2023/06/23 21:01:26;;;;;;;12.80;5.20;;;;;;;19.84;80.75;99197.39;107835;1308;22299;-53
2023/06/23 21:03:51;;;;;;;8.60;4.80;;;;;;;19.87;80.53;99200.88;107849;1308;22232;-51
2023/06/23 21:06:16;;;;;;;9.60;5.90;;;;;;;19.82;80.14;99206.09;107834;1308;22204;-43
2023/06/23 21:08:42;;;;;;;9.00;5.10;;;;;;;19.80;79.90;99211.48;107846;1308;22232;-51
2023/06/23 21:11:07;;;;;;;11.30;5.40;;;;;;;19.86;79.90;99213.23;107854;1308;22211;-46
2023/06/23 21:13:32;;;;;;;7.20;4.80;;;;;;;19.89;79.40;99211.33;107827;1308;22407;-51
2023/06/23 21:15:57;;;;;;;5.70;4.50;;;;;;;19.87;78.79;99205.66;107837;1308;22236;-42
2023/06/23 21:18:23;;;;;;;11.10;4.90;;;;;;;19.86;78.48;99195.42;107847;1308;22236;-47
2023/06/23 21:20:48;;;;;;;11.30;4.50;;;;;;;19.88;78.30;99188.53;107817;1308;22481;-46
2023/06/23 21:23:13;;;;;;;8.80;4.70;;;;;;;19.85;77.54;99184.82;107835;1308;23125;-47
2023/06/23 21:25:39;;;;;;;11.10;4.50;;;;;;;19.82;77.30;99185.88;107854;1308;22236;-44
2023/06/23 21:28:05;;;;;;;6.30;4.20;;;;;;;19.77;77.32;99186.54;107840;1308;22894;-40
2023/06/23 21:30:30;;;;;;;10.10;4.40;;;;;;;19.75;77.25;99183.27;107838;1308;22456;-46
2023/06/23 21:32:55;;;;;;;9.10;4.50;;;;;;;19.72;77.29;99183.95;107841;1308;22985;-46
2023/06/23 21:35:21;;;;;;;7.20;4.50;;;;;;;19.72;77.16;99186.11;107835;1308;22246;-53
2023/06/23 21:37:46;;;;;;;12.10;4.20;;;;;;;19.70;76.98;99185.80;107850;1308;22403;-50
2023/06/23 21:40:15;;;;;;;11.40;4.60;;;;;;;19.57;77.34;99185.92;107855;1308;22898;-49
2023/06/23 21:42:41;;;;;;;4.50;4.00;;;;;;;19.50;77.71;99187.27;107855;1308;23088;-52
2023/06/23 21:45:06;;;;;;;7.60;4.20;;;;;;;19.51;77.40;99187.45;107420;1308;22246;-50